Time;durP1;ratioP1;P1;durP2;ratioP2;P2;SDS_P1;SDS_P2;PMS_P1;PMS_P2;Temp;Humidity;BMP_temperature;BMP_pressure;BME280_temperature;BME280_humidity;BME280_pressure;Samples;Min_cycle;Max_cycle;Signal;HPM_P1;HPM_P2
2021/03/25 00:01:57;;;;;;;4.93;1.25;;;;;;;8.32;75.57;100977.81;5071621;28;20074;-50
2021/03/25 00:04:24;;;;;;;9.77;3.05;;;;;;;8.28;75.75;100971.34;5071493;28;20110;-49
2021/03/25 00:06:54;;;;;;;3.08;1.10;;;;;;;8.28;75.65;100973.28;5070565;28;20572;-47
2021/03/25 00:09:28;;;;;;;6.63;1.50;;;;;;;8.28;75.75;100976.88;5071739;28;20044;-46
2021/03/25 00:11:54;;;;;;;6.93;1.40;;;;;;;8.28;75.77;100976.06;5071594;28;20450;-47
2021/03/25 00:14:21;;;;;;;10.27;1.52;;;;;;;8.29;75.51;100974.91;5071766;28;20506;-47
2021/03/25 00:16:48;;;;;;;3.05;1.35;;;;;;;8.27;75.50;100974.41;5071470;28;20040;-47
2021/03/25 00:19:15;;;;;;;6.07;1.30;;;;;;;8.26;75.78;100973.56;5071590;28;20045;-48
2021/03/25 00:21:42;;;;;;;12.02;1.83;;;;;;;8.26;75.57;100972.78;5070977;28;20638;-46
2021/03/25 00:24:12;;;;;;;8.45;1.98;;;;;;;8.25;75.91;100965.63;5062364;28;20049;-49
2021/03/25 00:26:39;;;;;;;4.45;1.42;;;;;;;8.26;75.83;100972.78;5071572;28;20139;-46
2021/03/25 00:29:05;;;;;;;10.60;1.55;;;;;;;8.23;75.65;100968.72;5071604;28;20048;-46
2021/03/25 00:31:31;;;;;;;7.85;2.13;;;;;;;8.25;75.81;100962.88;5071744;28;20428;-47
2021/03/25 00:33:58;;;;;;;5.93;2.03;;;;;;;8.24;75.76;100959.28;5070802;28;20048;-46
2021/03/25 00:36:24;;;;;;;8.88;2.78;;;;;;;8.25;75.74;100960.94;5071714;28;20060;-46
2021/03/25 00:38:51;;;;;;;9.32;3.15;;;;;;;8.23;75.67;100956.88;5071277;28;20043;-51
2021/03/25 00:41:18;;;;;;;8.57;3.83;;;;;;;8.22;75.72;100956.06;5062410;28;20505;-47
2021/03/25 00:43:44;;;;;;;10.63;4.75;;;;;;;8.24;75.76;100961.25;5065366;28;20095;-47
2021/03/25 00:46:10;;;;;;;12.25;5.85;;;;;;;8.22;75.76;100966.28;5069700;28;20064;-46
2021/03/25 00:48:37;;;;;;;10.82;8.05;;;;;;;8.19;75.72;100953.13;5069771;28;20037;-48
2021/03/25 00:51:04;;;;;;;13.00;8.32;;;;;;;8.18;75.82;100951.53;5071292;28;20465;-46
2021/03/25 00:53:33;;;;;;;14.85;8.25;;;;;;;8.17;76.10;100949.88;5071441;28;20044;-49
2021/03/25 00:56:00;;;;;;;12.43;7.40;;;;;;;8.18;75.74;100951.53;5070750;28;20059;-47
2021/03/25 00:58:27;;;;;;;18.88;7.82;;;;;;;8.18;75.79;100959.78;5071456;28;20045;-48
2021/03/25 01:00:54;;;;;;;23.13;7.65;;;;;;;8.19;75.83;100958.66;5070641;28;20501;-48
2021/03/25 01:03:23;;;;;;;16.27;7.15;;;;;;;8.16;75.96;100951.00;5071031;28;20076;-46
2021/03/25 01:05:49;;;;;;;14.63;8.07;;;;;;;8.17;75.64;100947.13;5071281;28;20044;-47
2021/03/25 01:08:16;;;;;;;14.13;6.82;;;;;;;8.19;75.63;100947.63;5071378;28;20040;-47
2021/03/25 01:11:14;;;;;;;13.18;6.97;;;;;;;8.16;75.98;100949.06;5070878;28;20502;-48
2021/03/25 01:13:50;;;;;;;11.50;4.88;;;;;;;8.16;75.64;100943.56;5070798;28;20095;-48
2021/03/25 01:16:30;;;;;;;10.63;5.00;;;;;;;8.14;75.88;100948.59;5070799;28;20127;-48
2021/03/25 01:18:58;;;;;;;12.75;5.05;;;;;;;8.11;75.55;100938.22;5071347;28;20489;-49
2021/03/25 01:21:26;;;;;;;11.63;4.10;;;;;;;8.09;75.75;100942.44;5071074;28;20055;-49
2021/03/25 01:23:54;;;;;;;8.60;4.05;;;;;;;8.08;75.68;100933.34;5070441;28;20695;-48
2021/03/25 01:26:20;;;;;;;12.02;3.72;;;;;;;8.09;75.69;100939.66;5070649;28;20072;-48
2021/03/25 01:28:47;;;;;;;11.52;2.72;;;;;;;8.09;75.69;100934.16;5069847;28;20080;-48
2021/03/25 01:31:13;;;;;;;10.18;2.47;;;;;;;8.10;75.79;100933.03;5070981;28;20076;-50
2021/03/25 01:33:39;;;;;;;4.00;2.10;;;;;;;8.09;75.78;100940.47;5070295;28;20041;-47
2021/03/25 01:36:06;;;;;;;8.10;1.95;;;;;;;8.08;75.88;100927.00;5070636;28;20053;-48
2021/03/25 01:38:32;;;;;;;4.38;2.35;;;;;;;8.03;75.88;100924.41;5070995;28;20128;-48
2021/03/25 01:41:02;;;;;;;10.15;2.55;;;;;;;8.02;75.75;100926.38;5052634;28;20123;-47
2021/03/25 01:43:30;;;;;;;6.88;1.38;;;;;;;8.02;75.56;100922.81;5050376;28;20099;-46
2021/03/25 01:45:58;;;;;;;4.55;1.40;;;;;;;7.99;75.55;100922.28;5050880;28;20052;-47
2021/03/25 01:48:31;;;;;;;7.72;1.23;;;;;;;7.99;75.62;100925.06;5050633;28;20127;-45
2021/03/25 01:51:05;;;;;;;5.13;1.08;;;;;;;7.97;75.74;100918.25;5054907;28;20049;-45
2021/03/25 01:53:37;;;;;;;5.03;1.30;;;;;;;7.97;75.75;100921.81;5070623;28;20131;-46
2021/03/25 01:56:29;;;;;;;6.97;1.80;;;;;;;7.93;75.89;100926.38;5050719;28;20080;-47
2021/03/25 01:58:58;;;;;;;4.80;1.27;;;;;;;7.93;75.60;100920.84;5054252;28;20069;-47
2021/03/25 02:01:49;;;;;;;5.47;1.85;;;;;;;7.91;75.77;100928.63;5036348;28;20073;-45
2021/03/25 02:04:45;;;;;;;4.93;2.17;;;;;;;7.91;75.76;100922.31;5054195;28;20044;-47
2021/03/25 02:07:37;;;;;;;9.50;3.08;;;;;;;7.89;75.64;100919.84;5051954;28;20087;-48
2021/03/25 02:10:06;;;;;;;11.10;2.80;;;;;;;7.85;75.42;100927.16;5046223;28;20037;-46
2021/03/25 02:12:32;;;;;;;7.57;1.95;;;;;;;7.83;75.71;100915.66;5053786;28;20048;-46
2021/03/25 02:15:34;;;;;;;7.68;2.42;;;;;;;7.81;76.25;100908.84;5054111;28;20131;-46
2021/03/25 02:18:09;;;;;;;8.80;2.03;;;;;;;7.80;75.58;100905.28;5053555;28;20445;-51
2021/03/25 02:20:54;;;;;;;10.38;2.30;;;;;;;7.77;75.82;100905.91;5053650;28;20049;-46
2021/03/25 02:23:48;;;;;;;8.65;2.13;;;;;;;7.75;76.08;100908.19;5054027;28;20109;-48
2021/03/25 02:26:21;;;;;;;8.10;2.28;;;;;;;7.76;75.98;100901.53;5062292;28;20403;-47
2021/03/25 02:29:09;;;;;;;6.60;2.08;;;;;;;7.78;75.85;100898.47;5053883;28;20395;-47
2021/03/25 02:31:40;;;;;;;5.35;2.05;;;;;;;7.77;75.88;100894.88;5053710;28;20118;-47
2021/03/25 02:34:13;;;;;;;8.98;1.65;;;;;;;7.76;75.87;100893.25;5053082;28;20045;-47
2021/03/25 02:36:45;;;;;;;6.25;1.95;;;;;;;7.73;76.03;100891.16;5072404;28;20509;-47
2021/03/25 02:39:19;;;;;;;7.53;1.60;;;;;;;7.69;75.85;100898.44;5070456;28;20102;-47
2021/03/25 02:42:10;;;;;;;11.27;1.73;;;;;;;7.69;75.63;100892.13;5065702;28;20502;-47
2021/03/25 02:44:45;;;;;;;8.07;2.05;;;;;;;7.64;75.76;100884.81;5073634;28;20051;-46
2021/03/25 02:47:13;;;;;;;6.28;1.40;;;;;;;7.62;75.90;100881.59;5073037;28;20067;-47
2021/03/25 02:49:49;;;;;;;11.40;1.73;;;;;;;7.60;76.02;100883.84;5073151;28;20064;-48
2021/03/25 02:52:21;;;;;;;8.60;1.38;;;;;;;7.57;76.08;100889.19;5073098;28;20052;-47
2021/03/25 02:54:48;;;;;;;11.13;1.77;;;;;;;7.56;76.22;100882.88;5064906;28;20127;-48
2021/03/25 02:57:22;;;;;;;4.22;1.42;;;;;;;7.55;76.37;100875.72;5073099;28;20064;-50
2021/03/25 02:59:51;;;;;;;5.20;1.65;;;;;;;7.53;76.33;100871.66;5069789;28;20072;-48
2021/03/25 03:02:30;;;;;;;6.43;2.40;;;;;;;7.54;76.46;100876.06;5070452;28;20068;-49
2021/03/25 03:05:13;;;;;;;5.80;2.63;;;;;;;7.56;76.47;100869.09;5073031;28;20468;-48
2021/03/25 03:07:45;;;;;;;8.30;2.38;;;;;;;7.58;76.60;100863.25;5072940;28;20041;-48
2021/03/25 03:10:14;;;;;;;;;;;;;;;7.56;76.94;100852.56;5073140;28;20103;-49
2021/03/25 03:12:45;;;;;;;6.55;1.23;;;;;;;7.61;76.30;100857.09;5073034;28;19963;-48
2021/03/25 03:15:36;;;;;;;6.50;1.00;;;;;;;7.61;76.50;100843.31;5072751;28;20066;-45
2021/03/25 03:18:05;;;;;;;11.50;1.40;;;;;;;7.63;76.24;100844.63;5072122;28;20440;-45
2021/03/25 03:20:41;;;;;;;6.22;1.20;;;;;;;7.66;76.44;100843.16;5072575;28;20080;-46
2021/03/25 03:23:10;;;;;;;6.68;1.35;;;;;;;7.68;75.99;100840.88;5072583;28;20497;-48
2021/03/25 03:25:38;;;;;;;8.55;1.30;;;;;;;7.68;76.12;100840.88;5072517;28;20044;-46
2021/03/25 03:28:30;;;;;;;11.00;2.15;;;;;;;7.68;75.90;100852.72;5072390;28;20516;-47
2021/03/25 03:31:02;;;;;;;5.20;1.58;;;;;;;7.69;75.89;100856.28;5071164;28;20102;-47
2021/03/25 03:33:31;;;;;;;7.97;1.50;;;;;;;7.70;75.64;100867.00;5072264;28;20413;-49
2021/03/25 03:36:02;;;;;;;3.90;1.10;;;;;;;7.70;75.81;100860.69;5072408;28;20102;-47
2021/03/25 03:39:00;;;;;;;7.00;1.30;;;;;;;7.64;75.76;100857.28;5071310;28;20476;-48
2021/03/25 03:41:34;;;;;;;4.28;1.20;;;;;;;7.61;75.78;100852.41;5048366;28;20088;-50
2021/03/25 03:44:07;;;;;;;6.35;1.30;;;;;;;7.59;75.88;100854.69;5061003;28;20040;-50
2021/03/25 03:46:36;;;;;;;3.17;1.15;;;;;;;7.59;75.82;100854.69;5072391;28;20068;-46
2021/03/25 03:49:09;;;;;;;3.55;1.00;;;;;;;7.53;75.77;100844.94;5071811;28;20048;-46
2021/03/25 03:51:51;;;;;;;9.32;1.30;;;;;;;7.50;75.80;100837.31;5072246;28;20049;-48
2021/03/25 03:54:22;;;;;;;4.93;1.08;;;;;;;7.46;75.58;100841.88;5071698;28;20394;-47
2021/03/25 03:57:06;;;;;;;6.90;1.42;;;;;;;7.46;75.78;100838.28;5072215;28;20478;-45
2021/03/25 03:59:51;;;;;;;2.40;0.77;;;;;;;7.45;75.94;100845.72;5071836;28;20051;-50
2021/03/25 04:02:24;;;;;;;4.88;1.08;;;;;;;7.46;75.69;100841.03;5071614;28;20126;-46
2021/03/25 04:05:01;;;;;;;4.72;1.40;;;;;;;7.46;75.52;100839.09;5071749;28;20144;-46
2021/03/25 04:07:33;;;;;;;12.85;3.58;;;;;;;7.46;75.39;100838.28;5067403;28;20075;-49
2021/03/25 04:10:28;;;;;;;6.97;1.80;;;;;;;7.43;75.54;100833.41;5069065;28;20136;-47
2021/03/25 04:13:18;;;;;;;4.50;1.10;;;;;;;7.44;75.51;100835.84;5071745;28;20399;-47
2021/03/25 04:15:50;;;;;;;3.80;1.08;;;;;;;7.45;75.26;100828.38;5071466;28;20398;-46
2021/03/25 04:18:22;;;;;;;3.97;1.10;;;;;;;7.45;75.14;100823.69;5071687;28;20080;-46
2021/03/25 04:20:54;;;;;;;8.68;1.25;;;;;;;7.46;75.35;100819.81;5071070;28;20044;-47
2021/03/25 04:23:24;;;;;;;5.75;1.13;;;;;;;7.46;75.33;100817.06;5071035;28;20045;-48
2021/03/25 04:26:12;;;;;;;3.88;1.05;;;;;;;7.47;75.37;100817.84;5071543;28;20076;-47
2021/03/25 04:28:43;;;;;;;4.75;1.00;;;;;;;7.48;75.26;100808.47;5071723;28;20138;-49
2021/03/25 04:31:09;;;;;;;8.48;2.17;;;;;;;7.47;75.30;100815.91;5071099;28;20045;-47
2021/03/25 04:33:38;;;;;;;6.57;1.25;;;;;;;7.45;75.47;100809.94;5070675;28;20055;-46
2021/03/25 04:36:19;;;;;;;5.75;1.27;;;;;;;7.44;75.29;100807.50;5069120;28;20056;-47
2021/03/25 04:38:46;;;;;;;6.10;1.38;;;;;;;7.44;75.21;100802.00;5070098;28;20102;-47
2021/03/25 04:41:15;;;;;;;4.35;1.08;;;;;;;7.45;75.27;100804.41;5070422;28;20135;-48
2021/03/25 04:43:44;;;;;;;3.75;1.05;;;;;;;7.44;74.95;100796.50;5071203;28;20106;-47
2021/03/25 04:46:31;;;;;;;13.90;1.63;;;;;;;7.45;75.29;100804.41;5070817;28;20044;-49
2021/03/25 04:49:10;;;;;;;6.53;1.27;;;;;;;7.45;74.96;100796.16;5071533;28;20054;-48
2021/03/25 04:51:37;;;;;;;1.52;0.65;;;;;;;7.46;75.09;100799.72;5071643;28;20040;-46
2021/03/25 04:54:18;;;;;;;4.72;1.17;;;;;;;7.44;75.00;100811.03;5070748;28;20076;-47
2021/03/25 04:56:45;;;;;;;4.57;0.65;;;;;;;7.46;74.96;100817.06;5071146;28;20551;-46
2021/03/25 04:59:13;;;;;;;6.78;1.02;;;;;;;7.44;74.76;100802.00;5070625;28;20082;-48
2021/03/25 05:01:39;;;;;;;5.85;1.30;;;;;;;7.43;74.93;100797.63;5071297;28;20049;-47
2021/03/25 05:04:06;;;;;;;10.43;1.95;;;;;;;7.43;75.00;100800.38;5070795;28;20127;-47
2021/03/25 05:06:56;;;;;;;3.22;0.80;;;;;;;7.42;74.88;100805.06;5086673;28;20102;-46
2021/03/25 05:09:25;;;;;;;5.90;1.23;;;;;;;7.43;74.86;100811.38;5070923;28;20040;-46
2021/03/25 05:11:51;;;;;;;8.25;1.73;;;;;;;7.45;74.82;100798.91;5071145;28;20056;-47
2021/03/25 05:14:20;;;;;;;2.92;0.80;;;;;;;7.44;74.90;100797.28;5070820;28;20143;-49
2021/03/25 05:16:51;;;;;;;4.05;1.35;;;;;;;7.46;74.69;100800.53;5070673;28;20139;-49
2021/03/25 05:19:41;;;;;;;4.50;1.00;;;;;;;7.49;74.87;100794.38;5071194;28;20044;-48
2021/03/25 05:22:43;;;;;;;5.32;1.10;;;;;;;7.55;74.79;100793.06;5071420;28;20051;-47
2021/03/25 05:25:09;;;;;;;4.10;0.75;;;;;;;7.58;74.61;100786.94;5029916;28;20064;-48
2021/03/25 05:27:53;;;;;;;6.25;1.08;;;;;;;7.61;74.68;100790.97;5070630;28;20504;-47
2021/03/25 05:30:25;;;;;;;4.45;1.30;;;;;;;7.66;74.86;100788.88;5071223;28;20044;-47
2021/03/25 05:32:57;;;;;;;4.65;0.95;;;;;;;7.69;74.70;100790.16;5074739;28;20045;-48
2021/03/25 05:35:27;;;;;;;3.90;0.80;;;;;;;7.70;74.57;100789.84;5074224;28;20064;-47
2021/03/25 05:37:54;;;;;;;5.88;0.88;;;;;;;7.71;74.52;100780.44;5074731;28;20386;-47
2021/03/25 05:40:23;;;;;;;5.97;1.77;;;;;;;7.73;74.42;100777.38;5074151;28;20116;-49
2021/03/25 05:43:24;;;;;;;6.10;1.92;;;;;;;7.75;74.18;100772.34;5074045;28;20044;-48
2021/03/25 05:46:16;;;;;;;5.38;0.90;;;;;;;7.77;74.34;100772.81;5065127;28;20125;-48
2021/03/25 05:49:10;;;;;;;9.35;0.95;;;;;;;7.80;74.09;100783.19;5074170;28;20048;-46
2021/03/25 05:51:55;;;;;;;3.03;1.13;;;;;;;7.83;74.16;100782.53;5074433;28;20048;-46
2021/03/25 05:54:52;;;;;;;2.55;1.27;;;;;;;7.83;74.11;100777.84;5068539;28;20109;-51
2021/03/25 05:57:23;;;;;;;5.07;0.85;;;;;;;7.85;73.91;100780.25;5050146;28;20098;-52
2021/03/25 05:59:53;;;;;;;4.57;1.02;;;;;;;7.89;74.06;100786.72;5055219;28;20453;-50
2021/03/25 06:02:39;;;;;;;2.60;0.82;;;;;;;7.88;73.71;100782.38;5070726;28;20559;-49
2021/03/25 06:05:10;;;;;;;4.47;0.90;;;;;;;7.92;73.79;100786.91;5071978;28;20053;-52
2021/03/25 06:07:59;;;;;;;7.87;1.43;;;;;;;7.90;73.92;100786.44;5072224;28;20052;-46
2021/03/25 06:10:54;;;;;;;7.72;1.40;;;;;;;7.92;73.89;100786.09;5071569;28;20048;-51
2021/03/25 06:13:40;;;;;;;4.10;0.85;;;;;;;7.94;73.70;100779.09;5071737;28;20135;-46
2021/03/25 06:16:35;;;;;;;1.27;0.93;;;;;;;7.94;73.66;100784.63;5072944;28;20394;-46
2021/03/25 06:19:24;;;;;;;2.40;0.68;;;;;;;7.96;73.47;100787.88;5071391;28;20048;-47
2021/03/25 06:22:41;;;;;;;4.10;1.33;;;;;;;7.98;73.45;100779.28;5072285;28;20044;-55
2021/03/25 06:25:20;;;;;;;7.70;1.42;;;;;;;7.98;73.61;100773.75;5052219;28;20056;-48
2021/03/25 06:28:07;;;;;;;6.78;1.20;;;;;;;7.97;73.35;100775.69;5071194;28;20101;-50
2021/03/25 06:30:44;;;;;;;6.10;1.13;;;;;;;7.98;73.23;100768.25;5072446;28;20481;-48
2021/03/25 06:33:25;;;;;;;10.38;2.50;;;;;;;7.96;73.28;100774.09;5071227;28;20052;-49
2021/03/25 06:35:59;;;;;;;3.72;1.05;;;;;;;7.98;73.33;100766.31;5070947;28;20088;-48
2021/03/25 06:38:38;;;;;;;11.45;1.10;;;;;;;7.98;73.40;100766.31;5072584;28;20504;-46
2021/03/25 06:41:08;;;;;;;7.88;1.50;;;;;;;8.02;73.17;100768.41;5070873;28;20143;-49
2021/03/25 06:43:43;;;;;;;5.22;1.05;;;;;;;7.99;73.13;100770.66;5058079;28;20076;-50
2021/03/25 06:46:29;;;;;;;2.45;1.13;;;;;;;8.00;73.28;100771.47;5072945;28;20048;-47
2021/03/25 06:48:59;;;;;;;4.78;1.17;;;;;;;8.01;73.26;100766.78;5070881;28;20051;-51
2021/03/25 06:51:25;;;;;;;7.93;1.10;;;;;;;8.03;73.27;100767.25;5070960;28;20049;-47
2021/03/25 06:54:08;;;;;;;5.32;0.98;;;;;;;7.99;73.51;100770.66;5059016;28;20147;-49
2021/03/25 06:56:39;;;;;;;3.45;1.20;;;;;;;7.99;73.41;100762.38;5055871;28;20541;-55
2021/03/25 06:59:33;;;;;;;3.55;1.58;;;;;;;7.98;73.59;100774.56;5051477;28;20072;-46
2021/03/25 07:02:27;;;;;;;4.68;0.90;;;;;;;7.97;73.71;100772.13;5070003;28;20647;-50
2021/03/25 07:04:58;;;;;;;7.93;1.02;;;;;;;7.98;73.51;100773.75;5068949;28;20505;-50
2021/03/25 07:07:35;;;;;;;6.13;1.33;;;;;;;7.98;74.04;100763.53;5070969;28;20051;-49
2021/03/25 07:10:03;;;;;;;3.00;0.82;;;;;;;8.00;73.71;100771.47;5070042;28;20064;-48
2021/03/25 07:12:33;;;;;;;6.72;0.90;;;;;;;8.00;73.96;100774.22;5071167;28;20383;-47
2021/03/25 07:15:01;;;;;;;10.00;1.10;;;;;;;8.03;73.92;100775.53;5070861;28;20071;-52
2021/03/25 07:17:36;;;;;;;2.63;1.45;;;;;;;8.03;74.05;100767.25;5070337;28;20040;-48
2021/03/25 07:20:35;;;;;;;10.45;1.00;;;;;;;8.01;74.28;100766.78;5070642;28;20048;-51
2021/03/25 07:23:13;;;;;;;9.05;1.65;;;;;;;8.03;74.49;100770.00;5070731;28;20037;-51
2021/03/25 07:25:43;;;;;;;3.75;1.00;;;;;;;7.99;74.24;100756.88;5085453;28;20599;-49
2021/03/25 07:28:29;;;;;;;5.88;0.95;;;;;;;8.02;74.44;100757.38;5057953;28;20056;-50
2021/03/25 07:31:02;;;;;;;8.50;1.27;;;;;;;8.02;74.54;100755.44;5058709;28;20048;-48
2021/03/25 07:33:38;;;;;;;8.85;1.00;;;;;;;8.02;74.39;100755.44;5069776;28;20074;-48
2021/03/25 07:36:13;;;;;;;10.93;2.28;;;;;;;8.06;74.83;100752.81;5070644;28;20627;-51
2021/03/25 07:38:42;;;;;;;3.28;1.60;;;;;;;8.09;74.58;100757.69;5070699;28;20078;-49
2021/03/25 07:41:19;;;;;;;6.38;1.13;;;;;;;8.12;74.91;100759.78;5050790;28;20469;-48
2021/03/25 07:43:54;;;;;;;5.70;1.25;;;;;;;8.12;74.78;100760.59;5050757;28;20076;-52
2021/03/25 07:46:32;;;;;;;7.03;1.38;;;;;;;8.12;74.71;100766.13;5016094;28;20501;-48
2021/03/25 07:49:01;;;;;;;6.78;1.92;;;;;;;8.15;74.78;100768.22;5048756;28;20128;-47
2021/03/25 07:51:43;;;;;;;3.08;1.08;;;;;;;8.16;75.20;100753.28;5046840;28;20044;-48
2021/03/25 07:54:14;;;;;;;6.93;0.88;;;;;;;8.19;75.02;100755.38;5049673;28;20048;-47
2021/03/25 07:57:01;;;;;;;5.88;1.35;;;;;;;8.21;74.88;100758.59;5030567;28;20091;-48
2021/03/25 07:59:40;;;;;;;4.72;1.77;;;;;;;8.26;74.90;100763.94;5049963;28;20056;-50
2021/03/25 08:02:33;;;;;;;6.88;0.98;;;;;;;8.25;75.09;100745.78;5048354;28;20119;-50
2021/03/25 08:05:27;;;;;;;8.52;1.13;;;;;;;8.30;75.07;100758.63;5030343;28;20110;-47
2021/03/25 08:07:58;;;;;;;1.90;0.70;;;;;;;8.32;74.87;100737.03;5050242;28;20049;-50
2021/03/25 08:10:39;;;;;;;5.35;1.70;;;;;;;8.36;75.16;100740.75;5047863;28;20167;-49
2021/03/25 08:13:28;;;;;;;6.88;1.35;;;;;;;8.42;75.06;100731.13;5050288;28;20045;-49
2021/03/25 08:16:12;;;;;;;10.68;1.88;;;;;;;8.45;75.07;100733.25;5048781;28;20494;-47
2021/03/25 08:18:39;;;;;;;6.35;1.05;;;;;;;8.51;74.73;100738.25;5040942;28;20036;-47
2021/03/25 08:21:39;;;;;;;12.52;2.63;;;;;;;8.54;75.08;100731.28;5048942;28;20132;-47
2021/03/25 08:24:20;;;;;;;;;;;;;;;8.59;75.26;100736.59;5021295;28;20180;-50
2021/03/25 08:27:08;;;;;;;3.92;1.08;;;;;;;8.62;74.87;100730.41;5025060;28;20012;-54
2021/03/25 08:29:55;;;;;;;3.80;1.13;;;;;;;8.72;74.86;100729.22;5005063;28;20052;-48
2021/03/25 08:32:48;;;;;;;4.30;1.13;;;;;;;8.79;74.76;100727.53;5027399;28;20053;-48
2021/03/25 08:35:24;;;;;;;5.30;1.10;;;;;;;8.88;74.63;100719.22;5035381;28;20053;-48
2021/03/25 08:38:14;;;;;;;7.93;2.90;;;;;;;8.97;74.66;100720.81;5051323;28;20079;-50
2021/03/25 08:40:49;;;;;;;12.43;1.67;;;;;;;9.05;74.42;100713.59;5030684;28;20529;-50
2021/03/25 08:43:52;;;;;;;3.45;1.42;;;;;;;9.13;74.30;100721.78;5068714;28;20123;-51
2021/03/25 08:46:28;;;;;;;4.47;1.35;;;;;;;9.22;74.37;100724.50;5051944;28;20581;-52
2021/03/25 08:49:09;;;;;;;6.35;1.15;;;;;;;9.28;74.01;100719.59;5064072;28;20052;-47
2021/03/25 08:51:39;;;;;;;9.68;1.50;;;;;;;9.35;73.96;100725.38;5069490;28;20127;-54
2021/03/25 08:54:28;;;;;;;7.63;1.33;;;;;;;9.43;73.56;100724.50;5053374;28;20124;-54
2021/03/25 08:56:56;;;;;;;6.82;1.50;;;;;;;9.48;73.56;100721.53;5065065;28;20052;-49
2021/03/25 08:59:34;;;;;;;9.98;3.35;;;;;;;9.57;73.48;100730.56;5069034;28;20754;-51
2021/03/25 09:02:16;;;;;;;9.73;1.65;;;;;;;9.64;72.95;100725.28;5067604;28;20427;-51
2021/03/25 09:05:09;;;;;;;6.07;1.23;;;;;;;9.68;72.56;100710.47;5068293;28;20389;-51
2021/03/25 09:07:37;;;;;;;5.05;1.40;;;;;;;9.71;72.92;100709.78;5062050;28;20057;-51
2021/03/25 09:10:13;;;;;;;7.00;1.05;;;;;;;9.76;72.09;100711.53;5065216;28;20045;-47
2021/03/25 09:12:39;;;;;;;9.00;1.70;;;;;;;9.82;72.57;100710.94;5059758;28;20056;-48
2021/03/25 09:15:07;;;;;;;6.72;1.42;;;;;;;9.84;72.44;100699.56;5072649;28;20074;-50
2021/03/25 09:17:40;;;;;;;3.03;0.80;;;;;;;9.86;71.90;100704.75;5072282;28;20616;-47
2021/03/25 09:20:12;;;;;;;7.43;1.33;;;;;;;9.84;71.97;100699.56;5073328;28;20059;-52
2021/03/25 09:22:57;;;;;;;4.85;1.30;;;;;;;9.85;72.05;100692.88;5072205;28;20048;-49
2021/03/25 09:25:26;;;;;;;7.43;2.70;;;;;;;9.86;71.92;100700.03;5057547;28;20056;-48
2021/03/25 09:28:07;;;;;;;5.13;1.45;;;;;;;9.86;71.82;100704.75;5061290;28;20106;-50
2021/03/25 09:30:43;;;;;;;7.40;1.53;;;;;;;9.87;71.70;100706.38;5067501;28;20049;-53
2021/03/25 09:33:46;;;;;;;6.38;1.40;;;;;;;9.92;71.62;100709.72;5068895;28;20321;-52
2021/03/25 09:36:18;;;;;;;9.23;1.38;;;;;;;10.01;71.47;100702.13;5071587;28;20087;-51
2021/03/25 09:38:57;;;;;;;5.47;1.33;;;;;;;10.05;71.78;100703.09;5072140;28;20044;-48
2021/03/25 09:41:26;;;;;;;7.25;1.17;;;;;;;10.07;71.44;100699.97;5065998;28;20387;-49
2021/03/25 09:43:54;;;;;;;4.88;1.98;;;;;;;10.07;71.58;100700.78;5067762;28;20097;-47
2021/03/25 09:46:23;;;;;;;10.32;0.90;;;;;;;10.14;71.34;100708.56;5071648;28;20254;-48
2021/03/25 09:48:50;;;;;;;9.63;1.58;;;;;;;10.17;71.09;100697.59;5066436;28;20048;-47
2021/03/25 09:51:24;;;;;;;9.93;2.28;;;;;;;10.18;70.64;100696.44;5052206;28;20045;-50
2021/03/25 09:53:54;;;;;;;9.95;1.90;;;;;;;10.24;70.46;100697.84;5051917;28;20141;-50
2021/03/25 09:56:29;;;;;;;3.30;0.93;;;;;;;10.30;70.40;100693.69;5064081;28;20048;-51
2021/03/25 09:58:57;;;;;;;7.53;1.90;;;;;;;10.38;70.63;100691.94;5069057;28;20135;-48
2021/03/25 10:01:44;;;;;;;11.50;1.10;;;;;;;10.43;69.67;100688.19;5071235;28;20097;-53
2021/03/25 10:04:32;;;;;;;8.45;1.55;;;;;;;10.50;69.91;100691.97;5072229;28;20072;-53
2021/03/25 10:07:03;;;;;;;14.25;1.80;;;;;;;10.52;70.31;100695.19;5072706;28;20053;-48
2021/03/25 10:09:52;;;;;;;9.32;1.98;;;;;;;10.52;69.51;100688.84;5070612;28;20060;-49
2021/03/25 10:12:46;;;;;;;9.20;1.58;;;;;;;10.56;69.60;100678.72;5072090;28;20383;-46
2021/03/25 10:15:31;;;;;;;4.68;1.40;;;;;;;10.68;69.69;100673.16;5071420;28;20080;-51
2021/03/25 10:18:05;;;;;;;12.52;1.58;;;;;;;10.92;69.47;100676.72;5070524;28;20070;-46
2021/03/25 10:20:50;;;;;;;6.78;1.52;;;;;;;11.17;69.10;100658.06;5071389;28;20040;-51
2021/03/25 10:23:39;;;;;;;5.30;1.00;;;;;;;11.27;68.25;100665.06;5064017;28;20489;-50
2021/03/25 10:26:12;;;;;;;6.00;1.17;;;;;;;11.32;68.25;100664.81;5051390;28;20053;-52
2021/03/25 10:28:42;;;;;;;6.18;2.40;;;;;;;11.36;68.67;100649.09;5066774;28;20040;-47
2021/03/25 10:31:16;;;;;;;5.35;1.80;;;;;;;11.40;68.34;100656.38;5071229;28;20508;-48
2021/03/25 10:33:43;;;;;;;8.57;1.70;;;;;;;11.45;68.50;100661.66;5053051;28;20866;-46
2021/03/25 10:36:17;;;;;;;4.75;1.90;;;;;;;11.51;68.36;100646.38;5060715;28;20056;-54
2021/03/25 10:38:51;;;;;;;8.00;1.15;;;;;;;11.51;67.85;100643.63;5070228;28;20044;-50
2021/03/25 10:41:21;;;;;;;6.05;1.92;;;;;;;11.52;68.15;100656.28;5069579;28;20040;-52
2021/03/25 10:43:51;;;;;;;5.40;0.95;;;;;;;11.49;68.22;100653.44;5059008;28;20643;-48
2021/03/25 10:46:37;;;;;;;9.13;1.25;;;;;;;11.52;67.94;100656.28;5062067;28;20134;-46
2021/03/25 10:49:15;;;;;;;7.72;1.67;;;;;;;11.49;67.59;100651.47;5071600;28;20863;-47
2021/03/25 10:51:44;;;;;;;7.55;1.20;;;;;;;11.44;68.12;100657.25;5071358;28;20520;-51
2021/03/25 10:54:25;;;;;;;7.90;1.52;;;;;;;11.39;67.79;100651.97;5067446;28;20044;-47
2021/03/25 10:57:14;;;;;;;5.80;1.05;;;;;;;11.37;68.36;100647.94;5066581;28;20072;-52
2021/03/25 11:00:00;;;;;;;7.30;1.15;;;;;;;11.33;68.45;100650.59;5065494;28;20135;-49
2021/03/25 11:02:30;;;;;;;3.28;0.90;;;;;;;11.35;68.49;100651.06;5070770;28;20123;-51
2021/03/25 11:05:08;;;;;;;7.72;1.60;;;;;;;11.38;68.55;100644.84;5070800;28;20032;-53
2021/03/25 11:07:41;;;;;;;9.73;1.65;;;;;;;11.44;68.41;100648.94;5070560;28;20040;-52
2021/03/25 11:10:22;;;;;;;12.88;3.53;;;;;;;11.46;68.39;100643.84;5065820;28;20557;-50
2021/03/25 11:12:56;;;;;;;8.88;1.52;;;;;;;11.54;68.37;100640.09;5066649;28;20071;-48
2021/03/25 11:15:30;;;;;;;8.40;1.48;;;;;;;11.62;68.41;100633.59;5070374;28;20128;-50
2021/03/25 11:17:56;;;;;;;7.75;1.23;;;;;;;11.73;68.41;100628.38;5070238;28;20753;-51
2021/03/25 11:20:28;;;;;;;7.15;1.48;;;;;;;11.73;68.17;100620.06;5071129;28;20047;-49
2021/03/25 11:22:57;;;;;;;2.93;0.87;;;;;;;11.71;68.21;100614.06;5067653;28;20040;-51
2021/03/25 11:25:29;;;;;;;5.63;1.30;;;;;;;11.83;68.06;100613.19;5062114;28;20114;-52
2021/03/25 11:28:14;;;;;;;6.20;1.25;;;;;;;12.04;67.71;100591.53;5068757;28;20501;-52
2021/03/25 11:30:47;;;;;;;6.75;1.50;;;;;;;12.26;67.43;100598.41;5050871;28;20151;-50
2021/03/25 11:33:28;;;;;;;6.15;1.20;;;;;;;12.28;66.95;100593.31;5050465;28;20087;-53
2021/03/25 11:35:57;;;;;;;;;;;;;;;12.17;66.35;100588.31;5050654;28;20065;-51
2021/03/25 11:38:26;;;;;;;2.75;0.90;;;;;;;12.07;66.90;100590.81;5050578;28;19924;-52
2021/03/25 11:40:55;;;;;;;13.30;3.28;;;;;;;12.08;67.50;100581.31;5053194;28;20049;-50
2021/03/25 11:43:36;;;;;;;6.88;2.13;;;;;;;12.20;67.44;100576.47;5069803;28;20086;-53
2021/03/25 11:46:03;;;;;;;4.85;1.40;;;;;;;12.25;67.26;100582.91;5069070;28;20595;-49
2021/03/25 11:48:32;;;;;;;9.43;1.58;;;;;;;12.33;67.03;100579.16;5070702;28;20397;-52
2021/03/25 11:51:28;;;;;;;8.95;2.65;;;;;;;12.35;66.88;100580.41;5070541;28;20048;-50
2021/03/25 11:53:56;;;;;;;6.53;1.02;;;;;;;12.38;66.81;100574.13;5048866;28;20064;-51
2021/03/25 11:56:38;;;;;;;7.97;2.50;;;;;;;12.34;66.32;100569.66;5052133;28;20049;-51
2021/03/25 11:59:14;;;;;;;8.38;1.40;;;;;;;12.29;66.39;100556.84;5068539;28;20091;-52
2021/03/25 12:01:41;;;;;;;6.03;1.30;;;;;;;12.27;66.80;100559.19;5069921;28;20044;-48
2021/03/25 12:04:14;;;;;;;9.88;1.45;;;;;;;12.19;66.53;100572.09;5069525;28;20056;-49
2021/03/25 12:07:02;;;;;;;5.70;0.68;;;;;;;12.19;66.60;100549.91;5070354;28;20083;-52
2021/03/25 12:09:30;;;;;;;6.32;0.93;;;;;;;12.23;66.86;100552.75;5069843;28;20133;-49
2021/03/25 12:11:57;;;;;;;6.75;0.88;;;;;;;12.29;66.73;100544.94;5049927;28;20826;-49
2021/03/25 12:14:24;;;;;;;6.40;0.88;;;;;;;12.34;66.78;100547.47;5076027;28;20393;-49